Aérodrome :
LOGIN :

S'inscrire | Disclaimer

   EN    FR    IT 

 










Légende :    VFR   VFR Marginal   IFR   IFR Intensif   IFR Très Intensif
Visi : 
Plafond : 
>= 8 km
>= 3000ft
5 à 8 km
1000 à 3000 ft
1500m à 5 km
500 à 1000 ft
800 à 1500m
200 à 500 ft
< 800m
< 200 ft
Symboles :   Orages  Brouillard  Fortes neiges  Fortes précipitations  Vent > 20 kt
SIGMETs :   Divers  Orages  Givrage  Turbulence  Onde Orograph.  Cendres Volcan.







- Altitude de l'aérodrome : 3 ft
- Code IATA : LWR


EHLW - Leuuwarden Air Base

DERNIER METAR :
  • 182055Z AUTO 06011KT 350V130 9999 SCT029 OVC033 06/03 Q1029 BLU

METARs EXPIRÉS :
  • 182025Z AUTO 06011KT 010V110 9999 OVC030 06/03 Q1030 BLU
  • 181955Z AUTO 07011KT 010V110 9999 FEW021 BKN027 OVC030 06/03 Q1030 BLU
  • 181925Z AUTO 06012KT 010V140 9999 FEW025 BKN029 OVC032 06/04 Q1030 BLU
  • 181859Z AUTO 07012KT 020V130 9999 FEW008 OVC016 06/04 Q1030 WHT
  • 181855Z AUTO 07012KT 030V130 9999 FEW008 BKN014 OVC017 06/04 Q1030 GRN
  • 181825Z AUTO 07012KT 010V120 9999 OVC013 06/04 Q1030 GRN

TAF TAF EHLW
Valide du 18 à 18h jusqu'au 19 à 06h UTC


181721Z 1818/1906 06010KT 9999 SCT015 BKN020
PROB30
TEMPO 1820/1906 4000 BR SCT007 SCT012 BKN015
Pas de NOTAMs connus pour ce terrain.



MET'MAP, la Météo Aéronautique d'un coup d'oeil ! - Copyright ORBIFLY Décembre 2007 - Disclaimer

ORBIFLY MET'MAP TEAM :

Programmation & Développement : Alexandra Zaïnal
Conception & Développement : Baudouin d'Aumeries
Co-Programmation & Développement : Marc-Olivier Méhu
Soutien technique & logistique : Manuel Goepfert

Contact : metmap@orbifly.com




SOURCES & CREDITS :

   NOAA